Time;durP1;ratioP1;P1;durP2;ratioP2;P2;SDS_P1;SDS_P2;PMS_P1;PMS_P2;Temp;Humidity;BMP_temperature;BMP_pressure;BME280_temperature;BME280_humidity;BME280_pressure;Samples;Min_cycle;Max_cycle;Signal;HPM_P1;HPM_P2
2022/11/14 00:01:36;;;;;;;;;;;;;;;;;;6100501;23;7297;-67
2022/11/14 00:04:01;;;;;;;;;;;;;;;;;;6100705;23;7097;-67
2022/11/14 00:06:27;;;;;;;;;;;;;;;;;;6101801;23;7124;-67
2022/11/14 00:08:53;;;;;;;;;;;;;;;;;;6100847;23;7801;-67
2022/11/14 00:11:19;;;;;;;;;;;;;;;;;;6100876;23;6902;-66
2022/11/14 00:13:45;;;;;;;;;;;;;;;;;;6100549;23;6804;-65
2022/11/14 00:16:10;;;;;;;;;;;;;;;;;;6100389;23;7018;-65
2022/11/14 00:18:36;;;;;;;;;;;;;;;;;;6100336;23;7036;-65
2022/11/14 00:21:02;;;;;;;;;;;;;;;;;;6074905;23;7132;-65
2022/11/14 00:23:27;;;;;;;;;;;;;;;;;;6100416;23;6892;-65
2022/11/14 00:25:53;;;;;;;;;;;;;;;;;;6100453;23;7064;-65
2022/11/14 00:28:19;;;;;;;;;;;;;;;;;;6099857;23;7060;-65
2022/11/14 00:30:48;;;;;;;;;;;;;;;;;;6101606;23;6997;-65
2022/11/14 00:33:13;;;;;;;;;;;;;;;;;;6099753;23;7172;-65
2022/11/14 00:35:39;;;;;;;;;;;;;;;;;;6099832;23;7130;-65
2022/11/14 00:38:04;;;;;;;;;;;;;;;;;;6100191;23;6982;-65
2022/11/14 00:40:30;;;;;;;;;;;;;;;;;;6100467;23;6999;-65
2022/11/14 00:42:56;;;;;;;;;;;;;;;;;;6101298;23;6966;-65
2022/11/14 00:45:21;;;;;;;;;;;;;;;;;;6100146;23;7110;-67
2022/11/14 00:47:47;;;;;;;;;;;;;;;;;;6100841;23;7103;-67
2022/11/14 00:50:13;;;;;;;;;;;;;;;;;;6101518;23;7020;-68
2022/11/14 00:52:39;;;;;;;;;;;;;;;;;;6101221;23;7188;-67
2022/11/14 00:55:05;;;;;;;;;;;;;;;;;;6100482;23;7156;-67
2022/11/14 00:57:31;;;;;;;;;;;;;;;;;;6101803;23;6931;-67
2022/11/14 00:59:56;;;;;;;;;;;;;;;;;;6100169;23;6789;-67
2022/11/14 01:02:23;;;;;;;;;;;;;;;;;;6100443;23;7398;-67
2022/11/14 01:04:48;;;;;;;;;;;;;;;;;;6100411;23;7376;-67
2022/11/14 01:07:14;;;;;;;;;;;;;;;;;;6101145;23;7203;-67
2022/11/14 01:09:40;;;;;;;;;;;;;;;;;;6099803;23;7056;-67
2022/11/14 01:12:05;;;;;;;;;;;;;;;;;;6099276;23;6994;-67
2022/11/14 01:14:31;;;;;;;;;;;;;;;;;;6099336;23;6843;-67
2022/11/14 01:16:56;;;;;;;;;;;;;;;;;;6099434;23;7370;-67
2022/11/14 01:19:22;;;;;;;;;;;;;;;;;;6099368;23;7129;-67
2022/11/14 01:21:47;;;;;;;;;;;;;;;;;;6100121;23;7953;-67
2022/11/14 01:24:13;;;;;;;;;;;;;;;;;;6100242;23;6785;-67
2022/11/14 01:26:39;;;;;;;;;;;;;;;;;;6100836;23;6962;-67
2022/11/14 01:29:04;;;;;;;;;;;;;;;;;;6100470;23;7028;-67
2022/11/14 01:31:30;;;;;;;;;;;;;;;;;;6100171;23;7058;-67
2022/11/14 01:33:56;;;;;;;;;;;;;;;;;;6100064;23;7214;-67
2022/11/14 01:36:22;;;;;;;;;;;;;;;;;;6099817;23;6908;-67
2022/11/14 01:38:52;;;;;;;;;;;;;;;;;;6099880;23;6996;-67
2022/11/14 01:41:18;;;;;;;;;;;;;;;;;;6100529;23;6814;-67
2022/11/14 01:43:44;;;;;;;;;;;;;;;;;;6100221;23;7067;-67
2022/11/14 01:46:12;;;;;;;;;;;;;;;;;;6100746;23;6945;-67
2022/11/14 01:48:57;;;;;;;;;;;;;;;;;;6099573;23;7009;-67
2022/11/14 01:51:34;;;;;;;;;;;;;;;;;;6099834;23;7136;-67
2022/11/14 01:54:03;;;;;;;;;;;;;;;;;;6099232;23;7110;-67
2022/11/14 01:56:35;;;;;;;;;;;;;;;;;;6100376;23;7096;-67
2022/11/14 01:59:05;;;;;;;;;;;;;;;;;;6099898;23;7104;-67
2022/11/14 02:01:33;;;;;;;;;;;;;;;;;;6100402;23;7178;-67
2022/11/14 02:04:01;;;;;;;;;;;;;;;;;;6099929;23;7201;-67
2022/11/14 02:06:29;;;;;;;;;;;;;;;;;;6101301;23;6928;-67
2022/11/14 02:08:57;;;;;;;;;;;;;;;;;;6100965;23;7148;-67
2022/11/14 02:11:22;;;;;;;;;;;;;;;;;;6100558;23;7324;-65
2022/11/14 02:13:48;;;;;;;;;;;;;;;;;;6100068;23;7144;-65
2022/11/14 02:16:14;;;;;;;;;;;;;;;;;;6099684;23;7010;-65
2022/11/14 02:18:43;;;;;;;;;;;;;;;;;;6099728;23;7122;-65
2022/11/14 02:21:09;;;;;;;;;;;;;;;;;;6099913;23;7288;-65
2022/11/14 02:23:34;;;;;;;;;;;;;;;;;;6100075;23;7026;-65
2022/11/14 02:26:00;;;;;;;;;;;;;;;;;;6100075;23;7092;-65
2022/11/14 02:28:26;;;;;;;;;;;;;;;;;;6100033;23;7196;-65
2022/11/14 02:30:51;;;;;;;;;;;;;;;;;;6099123;23;7567;-65
2022/11/14 02:33:18;;;;;;;;;;;;;;;;;;6099518;23;7297;-65
2022/11/14 02:35:43;;;;;;;;;;;;;;;;;;6100504;23;6918;-65
2022/11/14 02:38:09;;;;;;;;;;;;;;;;;;6099411;23;7129;-65
2022/11/14 02:40:34;;;;;;;;;;;;;;;;;;6098663;23;7078;-65
2022/11/14 02:43:00;;;;;;;;;;;;;;;;;;6099777;23;6901;-65
2022/11/14 02:45:29;;;;;;;;;;;;;;;;;;6098983;23;7097;-65
2022/11/14 02:47:54;;;;;;;;;;;;;;;;;;6099242;23;7147;-65
2022/11/14 02:50:20;;;;;;;;;;;;;;;;;;6099420;23;7039;-65
2022/11/14 02:52:46;;;;;;;;;;;;;;;;;;6099998;23;8201;-65
2022/11/14 02:55:11;;;;;;;;;;;;;;;;;;6100321;23;7358;-65
2022/11/14 02:57:37;;;;;;;;;;;;;;;;;;6098971;23;7004;-65
2022/11/14 03:00:04;;;;;;;;;;;;;;;;;;6099997;23;7170;-65
2022/11/14 03:02:29;;;;;;;;;;;;;;;;;;6099995;23;6897;-65
2022/11/14 03:04:56;;;;;;;;;;;;;;;;;;6098590;23;7166;-65
2022/11/14 03:07:21;;;;;;;;;;;;;;;;;;6099544;23;7348;-65
2022/11/14 03:09:47;;;;;;;;;;;;;;;;;;6099548;23;7074;-65
2022/11/14 03:12:16;;;;;;;;;;;;;;;;;;6099616;23;7116;-65
2022/11/14 03:14:42;;;;;;;;;;;;;;;;;;6099383;23;7074;-65
2022/11/14 03:17:07;;;;;;;;;;;;;;;;;;6099326;23;6996;-64
2022/11/14 03:19:33;;;;;;;;;;;;;;;;;;6099381;23;7861;-65
2022/11/14 03:21:59;;;;;;;;;;;;;;;;;;6099340;23;6969;-64
2022/11/14 03:24:24;;;;;;;;;;;;;;;;;;6101547;23;7217;-64
2022/11/14 03:26:50;;;;;;;;;;;;;;;;;;6101533;23;6774;-64
2022/11/14 03:29:16;;;;;;;;;;;;;;;;;;6101256;23;7024;-65
2022/11/14 03:31:41;;;;;;;;;;;;;;;;;;6102028;23;7101;-65
2022/11/14 03:34:08;;;;;;;;;;;;;;;;;;6100724;23;7679;-64
2022/11/14 03:36:34;;;;;;;;;;;;;;;;;;6100780;23;7020;-65
2022/11/14 03:38:59;;;;;;;;;;;;;;;;;;6101628;23;7126;-65
2022/11/14 03:41:25;;;;;;;;;;;;;;;;;;6100253;23;7001;-64
2022/11/14 03:43:51;;;;;;;;;;;;;;;;;;6100753;23;7182;-64
2022/11/14 03:46:16;;;;;;;;;;;;;;;;;;6101401;23;7156;-65
2022/11/14 03:48:42;;;;;;;;;;;;;;;;;;6101169;23;7026;-64
2022/11/14 03:51:07;;;;;;;;;;;;;;;;;;6101369;23;7123;-65
2022/11/14 03:53:33;;;;;;;;;;;;;;;;;;6100279;23;7161;-65
2022/11/14 03:55:58;;;;;;;;;;;;;;;;;;6101198;23;7126;-65
2022/11/14 03:58:24;;;;;;;;;;;;;;;;;;6101256;23;7076;-64
2022/11/14 04:00:50;;;;;;;;;;;;;;;;;;6100254;23;6859;-65
2022/11/14 04:03:16;;;;;;;;;;;;;;;;;;6101138;23;7024;-65
2022/11/14 04:05:45;;;;;;;;;;;;;;;;;;6100459;23;7496;-65
2022/11/14 04:08:11;;;;;;;;;;;;;;;;;;6101054;23;6915;-65
2022/11/14 04:10:36;;;;;;;;;;;;;;;;;;6101523;23;7034;-65
2022/11/14 04:13:04;;;;;;;;;;;;;;;;;;6101813;23;7062;-65
2022/11/14 04:15:30;;;;;;;;;;;;;;;;;;6100232;23;7961;-64
2022/11/14 04:17:55;;;;;;;;;;;;;;;;;;6100829;23;7109;-65
2022/11/14 04:20:21;;;;;;;;;;;;;;;;;;6100178;23;7156;-65
2022/11/14 04:22:47;;;;;;;;;;;;;;;;;;6100196;23;6894;-65
2022/11/14 04:25:12;;;;;;;;;;;;;;;;;;6100571;23;7083;-65
2022/11/14 04:27:38;;;;;;;;;;;;;;;;;;6100924;23;8021;-64
2022/11/14 04:30:05;;;;;;;;;;;;;;;;;;6100661;23;7455;-65
2022/11/14 04:32:30;;;;;;;;;;;;;;;;;;6100843;23;6931;-65
2022/11/14 04:34:56;;;;;;;;;;;;;;;;;;6100883;23;7081;-64
2022/11/14 04:37:22;;;;;;;;;;;;;;;;;;6100120;23;6782;-65
2022/11/14 04:39:48;;;;;;;;;;;;;;;;;;6099964;23;6910;-64
2022/11/14 04:42:14;;;;;;;;;;;;;;;;;;6099790;23;7388;-65
2022/11/14 04:44:39;;;;;;;;;;;;;;;;;;6100976;23;7069;-64
2022/11/14 04:47:05;;;;;;;;;;;;;;;;;;6100204;23;7113;-66
2022/11/14 04:49:30;;;;;;;;;;;;;;;;;;6100264;23;7391;-67
2022/11/14 04:51:56;;;;;;;;;;;;;;;;;;6099984;23;7235;-67
2022/11/14 04:54:22;;;;;;;;;;;;;;;;;;6099855;23;6992;-67
2022/11/14 04:56:48;;;;;;;;;;;;;;;;;;6099878;23;7301;-67
2022/11/14 04:59:13;;;;;;;;;;;;;;;;;;6100163;23;7083;-67
2022/11/14 05:01:39;;;;;;;;;;;;;;;;;;6100006;23;7142;-67
2022/11/14 05:04:05;;;;;;;;;;;;;;;;;;6100288;23;7175;-67
2022/11/14 05:06:30;;;;;;;;;;;;;;;;;;6100145;23;7075;-67
2022/11/14 05:08:56;;;;;;;;;;;;;;;;;;6100146;23;7132;-67
2022/11/14 05:11:22;;;;;;;;;;;;;;;;;;6075920;23;7405;-67
2022/11/14 05:13:47;;;;;;;;;;;;;;;;;;6101266;23;7073;-67
2022/11/14 05:16:13;;;;;;;;;;;;;;;;;;6099763;23;7120;-67
2022/11/14 05:18:42;;;;;;;;;;;;;;;;;;6099710;23;7109;-65
2022/11/14 05:21:12;;;;;;;;;;;;;;;;;;6099729;23;7150;-65
2022/11/14 05:23:38;;;;;;;;;;;;;;;;;;6099991;23;7167;-65
2022/11/14 05:26:06;;;;;;;;;;;;;;;;;;6100001;23;6933;-65
2022/11/14 05:28:32;;;;;;;;;;;;;;;;;;6099899;23;6983;-64
2022/11/14 05:31:01;;;;;;;;;;;;;;;;;;6099793;23;7113;-64
2022/11/14 05:33:27;;;;;;;;;;;;;;;;;;6099974;23;7069;-64
2022/11/14 05:35:53;;;;;;;;;;;;;;;;;;6100783;23;7064;-65
2022/11/14 05:38:19;;;;;;;;;;;;;;;;;;6099921;23;6805;-67
2022/11/14 05:40:44;;;;;;;;;;;;;;;;;;6099438;23;6989;-67
2022/11/14 05:43:10;;;;;;;;;;;;;;;;;;6099729;23;7036;-67
2022/11/14 05:45:35;;;;;;;;;;;;;;;;;;6100106;23;7257;-67
2022/11/14 05:48:01;;;;;;;;;;;;;;;;;;6100468;23;7027;-67
2022/11/14 05:50:27;;;;;;;;;;;;;;;;;;6099553;23;7469;-67
2022/11/14 05:52:52;;;;;;;;;;;;;;;;;;6099807;23;7794;-67
2022/11/14 05:55:18;;;;;;;;;;;;;;;;;;6098869;23;7127;-67
2022/11/14 05:57:44;;;;;;;;;;;;;;;;;;6100776;23;7087;-67
2022/11/14 06:00:10;;;;;;;;;;;;;;;;;;6098902;23;7075;-67
2022/11/14 06:02:35;;;;;;;;;;;;;;;;;;6099402;23;7028;-67
2022/11/14 06:05:01;;;;;;;;;;;;;;;;;;6099248;23;7000;-67
2022/11/14 06:07:27;;;;;;;;;;;;;;;;;;6099200;23;7130;-67
2022/11/14 06:09:53;;;;;;;;;;;;;;;;;;6099017;23;7505;-67
2022/11/14 06:12:18;;;;;;;;;;;;;;;;;;6098944;23;7108;-67
2022/11/14 06:14:44;;;;;;;;;;;;;;;;;;6099355;23;7063;-67
2022/11/14 06:17:09;;;;;;;;;;;;;;;;;;6099174;23;7000;-67
2022/11/14 06:19:35;;;;;;;;;;;;;;;;;;6100002;23;7274;-67
2022/11/14 06:22:01;;;;;;;;;;;;;;;;;;6099208;23;7040;-67
2022/11/14 06:24:26;;;;;;;;;;;;;;;;;;6099393;23;7343;-67
2022/11/14 06:26:52;;;;;;;;;;;;;;;;;;6098908;23;7150;-67
2022/11/14 06:29:17;;;;;;;;;;;;;;;;;;6098970;23;7065;-67
2022/11/14 06:31:43;;;;;;;;;;;;;;;;;;6099216;23;7125;-67
2022/11/14 06:34:11;;;;;;;;;;;;;;;;;;6099279;23;7070;-67
2022/11/14 06:36:37;;;;;;;;;;;;;;;;;;6098517;23;7127;-67
2022/11/14 06:39:03;;;;;;;;;;;;;;;;;;6098801;23;7116;-67
2022/11/14 06:41:29;;;;;;;;;;;;;;;;;;6099233;23;7128;-67
2022/11/14 06:43:54;;;;;;;;;;;;;;;;;;6099158;23;7045;-67
2022/11/14 06:46:21;;;;;;;;;;;;;;;;;;6098963;23;7123;-67
2022/11/14 06:48:48;;;;;;;;;;;;;;;;;;6099978;23;6985;-67
2022/11/14 06:51:15;;;;;;;;;;;;;;;;;;6098662;23;7796;-64
2022/11/14 06:53:41;;;;;;;;;;;;;;;;;;6099869;23;7361;-65
2022/11/14 06:56:12;;;;;;;;;;;;;;;;;;6099011;23;6987;-65
2022/11/14 06:58:40;;;;;;;;;;;;;;;;;;6099977;23;7177;-67
2022/11/14 07:01:17;;;;;;;;;;;;;;;;;;6100503;23;7155;-67
2022/11/14 07:03:43;;;;;;;;;;;;;;;;;;6100888;23;7096;-67
2022/11/14 07:06:10;;;;;;;;;;;;;;;;;;6100348;23;7188;-67
2022/11/14 07:08:36;;;;;;;;;;;;;;;;;;6100845;23;7109;-67
2022/11/14 07:11:07;;;;;;;;;;;;;;;;;;6102099;23;7107;-67
2022/11/14 07:13:33;;;;;;;;;;;;;;;;;;6098593;23;7172;-67
2022/11/14 07:16:00;;;;;;;;;;;;;;;;;;6099845;23;7857;-67
2022/11/14 07:18:25;;;;;;;;;;;;;;;;;;6100359;23;7133;-67
2022/11/14 07:20:58;;;;;;;;;;;;;;;;;;6100073;23;7089;-67
2022/11/14 07:23:23;;;;;;;;;;;;;;;;;;6074836;23;8920;-67
2022/11/14 07:25:49;;;;;;;;;;;;;;;;;;6074801;23;8379;-67
2022/11/14 07:28:14;;;;;;;;;;;;;;;;;;6100854;23;7053;-67
2022/11/14 07:30:40;;;;;;;;;;;;;;;;;;6074436;23;7099;-67
2022/11/14 07:33:06;;;;;;;;;;;;;;;;;;6101149;23;7302;-67
2022/11/14 07:35:31;;;;;;;;;;;;;;;;;;6101273;23;7325;-67
2022/11/14 07:38:01;;;;;;;;;;;;;;;;;;6075606;23;7136;-67
2022/11/14 07:40:27;;;;;;;;;;;;;;;;;;6100243;23;7204;-67
2022/11/14 07:43:01;;;;;;;;;;;;;;;;;;6100501;23;7429;-67
2022/11/14 07:45:27;;;;;;;;;;;;;;;;;;6100582;23;7006;-67
2022/11/14 07:47:57;;;;;;;;;;;;;;;;;;6100092;23;7189;-67
2022/11/14 07:50:23;;;;;;;;;;;;;;;;;;6100922;23;7640;-67
2022/11/14 07:52:50;;;;;;;;;;;;;;;;;;6100753;23;7035;-67
2022/11/14 07:55:16;;;;;;;;;;;;;;;;;;6100537;23;7206;-67
2022/11/14 07:57:41;;;;;;;;;;;;;;;;;;6100892;23;6904;-67
2022/11/14 08:00:07;;;;;;;;;;;;;;;;;;6101209;23;7163;-67
2022/11/14 08:02:33;;;;;;;;;;;;;;;;;;6100240;23;7267;-67
2022/11/14 08:04:58;;;;;;;;;;;;;;;;;;6100332;23;7579;-67
2022/11/14 08:07:24;;;;;;;;;;;;;;;;;;6100266;23;7132;-67
2022/11/14 08:09:50;;;;;;;;;;;;;;;;;;6100247;23;7336;-67
2022/11/14 08:12:15;;;;;;;;;;;;;;;;;;6100263;23;7351;-67
2022/11/14 08:14:41;;;;;;;;;;;;;;;;;;6100650;23;7165;-67
2022/11/14 08:17:06;;;;;;;;;;;;;;;;;;6100359;23;6773;-67
2022/11/14 08:19:32;;;;;;;;;;;;;;;;;;6101125;23;6899;-67
2022/11/14 08:21:58;;;;;;;;;;;;;;;;;;6100758;23;6999;-67
2022/11/14 08:24:23;;;;;;;;;;;;;;;;;;6099864;23;7081;-67
2022/11/14 08:26:49;;;;;;;;;;;;;;;;;;6100146;23;7246;-67
2022/11/14 08:29:15;;;;;;;;;;;;;;;;;;6100696;23;7000;-67
2022/11/14 08:31:40;;;;;;;;;;;;;;;;;;6100174;23;7054;-67
2022/11/14 08:34:06;;;;;;;;;;;;;;;;;;6099991;23;7592;-67
2022/11/14 08:36:32;;;;;;;;;;;;;;;;;;6099936;23;7111;-67
2022/11/14 08:38:57;;;;;;;;;;;;;;;;;;6099828;23;6993;-67
2022/11/14 08:41:23;;;;;;;;;;;;;;;;;;6099687;23;7444;-67
2022/11/14 08:43:48;;;;;;;;;;;;;;;;;;6100174;23;7108;-67
2022/11/14 08:46:14;;;;;;;;;;;;;;;;;;6100357;23;7115;-67
2022/11/14 08:48:40;;;;;;;;;;;;;;;;;;6099630;23;7186;-67
2022/11/14 08:51:06;;;;;;;;;;;;;;;;;;6100406;23;6919;-67
2022/11/14 08:53:33;;;;;;;;;;;;;;;;;;6099697;23;7350;-67
2022/11/14 08:55:58;;;;;;;;;;;;;;;;;;6099559;23;6925;-67
2022/11/14 08:58:26;;;;;;;;;;;;;;;;;;6099371;23;7021;-67
2022/11/14 09:00:52;;;;;;;;;;;;;;;;;;6099732;23;7118;-66
2022/11/14 09:03:18;;;;;;;;;;;;;;;;;;6100083;23;7106;-65
2022/11/14 09:05:50;;;;;;;;;;;;;;;;;;6099998;23;7103;-65
2022/11/14 09:08:15;;;;;;;;;;;;;;;;;;6100664;23;7088;-65
2022/11/14 09:10:41;;;;;;;;;;;;;;;;;;6099477;23;7039;-65
2022/11/14 09:13:07;;;;;;;;;;;;;;;;;;6075489;23;8604;-66
2022/11/14 09:15:32;;;;;;;;;;;;;;;;;;6074407;23;8544;-65
2022/11/14 09:17:58;;;;;;;;;;;;;;;;;;6100869;23;7181;-65
2022/11/14 09:20:25;;;;;;;;;;;;;;;;;;6099638;23;6922;-65
2022/11/14 09:22:52;;;;;;;;;;;;;;;;;;6099618;23;6958;-65
2022/11/14 09:25:19;;;;;;;;;;;;;;;;;;6099030;23;7097;-65
2022/11/14 09:27:45;;;;;;;;;;;;;;;;;;6099678;23;7089;-65
2022/11/14 09:30:11;;;;;;;;;;;;;;;;;;6099254;23;7083;-65
2022/11/14 09:32:37;;;;;;;;;;;;;;;;;;6100557;23;7126;-65
2022/11/14 09:35:02;;;;;;;;;;;;;;;;;;6099255;23;7011;-65
2022/11/14 09:37:28;;;;;;;;;;;;;;;;;;6099261;23;7147;-66
2022/11/14 09:39:54;;;;;;;;;;;;;;;;;;6099139;23;6954;-65
2022/11/14 09:42:19;;;;;;;;;;;;;;;;;;6099256;23;6781;-65
2022/11/14 09:45:01;;;;;;;;;;;;;;;;;;6099230;23;7225;-65
2022/11/14 09:47:42;;;;;;;;;;;;;;;;;;6099635;23;6888;-65
2022/11/14 09:50:10;;;;;;;;;;;;;;;;;;6099553;23;7134;-65
2022/11/14 09:52:40;;;;;;;;;;;;;;;;;;6099124;23;7021;-65
2022/11/14 09:55:12;;;;;;;;;;;;;;;;;;6100276;23;6940;-66
2022/11/14 09:57:42;;;;;;;;;;;;;;;;;;6099201;23;7123;-67
2022/11/14 10:00:17;;;;;;;;;;;;;;;;;;6098908;23;7031;-67
2022/11/14 10:03:00;;;;;;;;;;;;;;;;;;6099309;23;7283;-67
2022/11/14 10:05:43;;;;;;;;;;;;;;;;;;6062035;23;7016;-67
2022/11/14 10:08:09;;;;;;;;;;;;;;;;;;6070669;23;7107;-67
2022/11/14 10:10:55;;;;;;;;;;;;;;;;;;6070645;23;6838;-67
2022/11/14 10:13:39;;;;;;;;;;;;;;;;;;6071564;23;7149;-67
2022/11/14 10:16:18;;;;;;;;;;;;;;;;;;6071902;23;7093;-67
2022/11/14 10:19:16;;;;;;;;;;;;;;;;;;6070623;23;6905;-65
2022/11/14 10:22:01;;;;;;;;;;;;;;;;;;6070327;23;7454;-65
2022/11/14 10:24:36;;;;;;;;;;;;;;;;;;6071413;23;7001;-65
2022/11/14 10:27:04;;;;;;;;;;;;;;;;;;6070172;23;7156;-66
2022/11/14 10:29:45;;;;;;;;;;;;;;;;;;6070116;23;7119;-67
2022/11/14 10:32:31;;;;;;;;;;;;;;;;;;6070880;23;7092;-66
2022/11/14 10:35:00;;;;;;;;;;;;;;;;;;6072400;23;7124;-65
2022/11/14 10:37:34;;;;;;;;;;;;;;;;;;6072904;23;7039;-65
2022/11/14 10:40:29;;;;;;;;;;;;;;;;;;6073145;23;7377;-65
2022/11/14 10:43:00;;;;;;;;;;;;;;;;;;6051570;23;7115;-67
2022/11/14 10:45:31;;;;;;;;;;;;;;;;;;6070085;23;7018;-67
2022/11/14 10:48:24;;;;;;;;;;;;;;;;;;6046297;23;8279;-67
2022/11/14 10:50:56;;;;;;;;;;;;;;;;;;6066821;23;7227;-67
2022/11/14 10:53:46;;;;;;;;;;;;;;;;;;6046138;23;7177;-67
2022/11/14 10:56:13;;;;;;;;;;;;;;;;;;6072045;23;7080;-67
2022/11/14 11:01:40;;;;;;;;;;;;;;;;;;6082144;23;7059;-67
2022/11/14 11:04:20;;;;;;;;;;;;;;;;;;6072742;23;7176;-66
2022/11/14 11:06:46;;;;;;;;;;;;;;;;;;6099478;23;7466;-65
2022/11/14 11:15:34;;;;;;;;;;;;;;;;;;6100101;23;6969;-66
2022/11/14 11:18:01;;;;;;;;;;;;;;;;;;6100242;23;7019;-65
2022/11/14 11:20:39;;;;;;;;;;;;;;;;;;6101077;23;6918;-65
2022/11/14 11:23:08;;;;;;;;;;;;;;;;;;6100950;23;6925;-65
2022/11/14 11:25:56;;;;;;;;;;;;;;;;;;6100741;23;7115;-65
2022/11/14 11:28:21;;;;;;;;;;;;;;;;;;6101427;23;7342;-65
2022/11/14 11:33:50;;;;;;;;;;;;;;;;;;6110263;23;7141;-66
2022/11/14 11:36:35;;;;;;;;;;;;;;;;;;6100532;23;7365;-65
2022/11/14 11:39:01;;;;;;;;;;;;;;;;;;6099976;23;7126;-65
2022/11/14 11:41:36;;;;;;;;;;;;;;;;;;6100060;23;7037;-65
2022/11/14 11:44:05;;;;;;;;;;;;;;;;;;6099837;23;6934;-65
2022/11/14 11:46:42;;;;;;;;;;;;;;;;;;6099907;23;7864;-65
2022/11/14 11:49:16;;;;;;;;;;;;;;;;;;6100380;23;6969;-65
2022/11/14 11:51:45;;;;;;;;;;;;;;;;;;6100533;23;7097;-65
2022/11/14 11:54:24;;;;;;;;;;;;;;;;;;6100288;23;7059;-65
2022/11/14 12:02:56;;;;;;;;;;;;;;;;;;6099872;23;6906;-65
2022/11/14 12:14:56;;;;;;;;;;;;;;;;;;6099445;23;6896;-65
2022/11/14 12:23:51;;;;;;;;;;;;;;;;;;6100067;23;6705;-65
2022/11/14 12:26:23;;;;;;;;;;;;;;;;;;6100021;23;7017;-66
2022/11/14 12:29:07;;;;;;;;;;;;;;;;;;6099877;23;6990;-65
2022/11/14 12:31:37;;;;;;;;;;;;;;;;;;6075230;23;7423;-65
2022/11/14 12:37:21;;;;;;;;;;;;;;;;;;6099527;23;6716;-65
2022/11/14 12:39:59;;;;;;;;;;;;;;;;;;6099943;23;7077;-65
2022/11/14 12:42:54;;;;;;;;;;;;;;;;;;6099093;23;7247;-65
2022/11/14 12:45:35;;;;;;;;;;;;;;;;;;6099924;23;7154;-65
2022/11/14 12:48:22;;;;;;;;;;;;;;;;;;6099783;23;7093;-65
2022/11/14 12:50:48;;;;;;;;;;;;;;;;;;6099700;23;6987;-65
2022/11/14 12:53:40;;;;;;;;;;;;;;;;;;6099507;23;6943;-65
2022/11/14 13:05:18;;;;;;;;;;;;;;;;;;6039383;23;6993;-65
2022/11/14 13:08:09;;;;;;;;;;;;;;;;;;6011835;23;7231;-65
2022/11/14 13:10:39;;;;;;;;;;;;;;;;;;6011040;23;6815;-65
2022/11/14 13:22:10;;;;;;;;;;;;;;;;;;6010874;23;6924;-65
2022/11/14 13:27:26;;;;;;;;;;;;;;;;;;6020602;23;7004;-65
2022/11/14 13:29:52;;;;;;;;;;;;;;;;;;6010793;23;7169;-66
2022/11/14 13:32:53;;;;;;;;;;;;;;;;;;6010745;23;7317;-65
2022/11/14 13:35:21;;;;;;;;;;;;;;;;;;6025173;23;7380;-66
2022/11/14 13:41:27;;;;;;;;;;;;;;;;;;6070049;23;6941;-65
2022/11/14 13:44:09;;;;;;;;;;;;;;;;;;6069963;23;7089;-66
2022/11/14 13:46:43;;;;;;;;;;;;;;;;;;6070200;23;7100;-66
2022/11/14 13:49:18;;;;;;;;;;;;;;;;;;6070444;23;7035;-66
2022/11/14 13:51:45;;;;;;;;;;;;;;;;;;6070538;23;7481;-67
2022/11/14 13:54:16;;;;;;;;;;;;;;;;;;6065598;23;7408;-66
2022/11/14 13:56:54;;;;;;;;;;;;;;;;;;6064522;23;6797;-66
2022/11/14 13:59:37;;;;;;;;;;;;;;;;;;6068101;23;7326;-65
2022/11/14 14:02:09;;;;;;;;;;;;;;;;;;6042907;23;6804;-66
2022/11/14 14:04:53;;;;;;;;;;;;;;;;;;6092654;23;7211;-65
2022/11/14 14:07:21;;;;;;;;;;;;;;;;;;6098463;23;7396;-65
2022/11/14 14:10:19;;;;;;;;;;;;;;;;;;6097686;23;7105;-65
2022/11/14 14:12:45;;;;;;;;;;;;;;;;;;6040341;23;6884;-65
2022/11/14 14:15:49;;;;;;;;;;;;;;;;;;6072705;23;8388;-67
2022/11/14 14:18:27;;;;;;;;;;;;;;;;;;6036548;23;7751;-67
2022/11/14 14:21:08;;;;;;;;;;;;;;;;;;6037736;23;8130;-67
2022/11/14 14:23:45;;;;;;;;;;;;;;;;;;6036763;23;7118;-67
2022/11/14 14:26:13;;;;;;;;;;;;;;;;;;6038057;23;7205;-67
2022/11/14 14:28:47;;;;;;;;;;;;;;;;;;6037755;23;8331;-67
2022/11/14 14:31:22;;;;;;;;;;;;;;;;;;6036920;23;6996;-67
2022/11/14 14:33:50;;;;;;;;;;;;;;;;;;6037677;23;7898;-67
2022/11/14 14:36:18;;;;;;;;;;;;;;;;;;6037123;23;7122;-67
2022/11/14 14:38:44;;;;;;;;;;;;;;;;;;6036170;23;7398;-67
2022/11/14 14:41:13;;;;;;;;;;;;;;;;;;6038272;23;7060;-67
2022/11/14 14:43:41;;;;;;;;;;;;;;;;;;6037774;23;8460;-66
2022/11/14 14:46:06;;;;;;;;;;;;;;;;;;6037146;23;6984;-66
2022/11/14 14:48:35;;;;;;;;;;;;;;;;;;6057146;23;7081;-65
2022/11/14 14:51:06;;;;;;;;;;;;;;;;;;6073004;23;8483;-65
2022/11/14 14:53:33;;;;;;;;;;;;;;;;;;6096724;23;6931;-66
2022/11/14 14:56:03;;;;;;;;;;;;;;;;;;6097680;23;7194;-67
2022/11/14 14:58:30;;;;;;;;;;;;;;;;;;6098216;23;7007;-67
2022/11/14 15:01:00;;;;;;;;;;;;;;;;;;6097513;23;6962;-67
2022/11/14 15:03:32;;;;;;;;;;;;;;;;;;6097709;23;6941;-67
2022/11/14 15:06:00;;;;;;;;;;;;;;;;;;6097679;23;7194;-67
2022/11/14 15:08:27;;;;;;;;;;;;;;;;;;6097721;23;6948;-66
2022/11/14 15:10:57;;;;;;;;;;;;;;;;;;6072267;23;8435;-66
2022/11/14 15:13:24;;;;;;;;;;;;;;;;;;6097705;23;7215;-66
2022/11/14 15:15:50;;;;;;;;;;;;;;;;;;6097652;23;7224;-66
2022/11/14 15:18:22;;;;;;;;;;;;;;;;;;6098299;23;7102;-66
2022/11/14 15:21:05;;;;;;;;;;;;;;;;;;6099653;23;6935;-66
2022/11/14 15:23:30;;;;;;;;;;;;;;;;;;6098919;23;7027;-65
2022/11/14 15:26:04;;;;;;;;;;;;;;;;;;6099892;23;6945;-65
2022/11/14 15:28:31;;;;;;;;;;;;;;;;;;6100246;23;7003;-65
2022/11/14 15:31:01;;;;;;;;;;;;;;;;;;6098655;23;7128;-65
2022/11/14 15:33:30;;;;;;;;;;;;;;;;;;6098939;23;6886;-65
2022/11/14 15:36:09;;;;;;;;;;;;;;;;;;6099465;23;7201;-65
2022/11/14 15:38:34;;;;;;;;;;;;;;;;;;6098951;23;6931;-65
2022/11/14 15:41:16;;;;;;;;;;;;;;;;;;6099904;23;6902;-65
2022/11/14 15:43:42;;;;;;;;;;;;;;;;;;6099037;23;6801;-65
2022/11/14 15:46:25;;;;;;;;;;;;;;;;;;6099383;23;7018;-66
2022/11/14 15:48:51;;;;;;;;;;;;;;;;;;6099772;23;6921;-66
2022/11/14 15:51:17;;;;;;;;;;;;;;;;;;6073610;23;8506;-66
2022/11/14 15:53:48;;;;;;;;;;;;;;;;;;6098580;23;7383;-66
2022/11/14 15:56:14;;;;;;;;;;;;;;;;;;6098691;23;7032;-66
2022/11/14 15:58:39;;;;;;;;;;;;;;;;;;6099146;23;7122;-66
2022/11/14 16:01:15;;;;;;;;;;;;;;;;;;6098923;23;7149;-66
2022/11/14 16:03:47;;;;;;;;;;;;;;;;;;6099350;23;7186;-66
2022/11/14 16:06:12;;;;;;;;;;;;;;;;;;6099110;23;7337;-66
2022/11/14 16:08:38;;;;;;;;;;;;;;;;;;6098805;23;6936;-66
2022/11/14 16:11:03;;;;;;;;;;;;;;;;;;6098968;23;6961;-66
2022/11/14 16:13:29;;;;;;;;;;;;;;;;;;6098617;23;6954;-66
2022/11/14 16:15:54;;;;;;;;;;;;;;;;;;6073331;23;6958;-66
2022/11/14 16:18:20;;;;;;;;;;;;;;;;;;6098834;23;7179;-66
2022/11/14 16:20:45;;;;;;;;;;;;;;;;;;6098578;23;6970;-66
2022/11/14 16:23:12;;;;;;;;;;;;;;;;;;6098225;23;6972;-66
2022/11/14 16:25:38;;;;;;;;;;;;;;;;;;6074086;23;7161;-66
2022/11/14 16:28:04;;;;;;;;;;;;;;;;;;6099074;23;6820;-66
2022/11/14 16:30:29;;;;;;;;;;;;;;;;;;6098514;23;7233;-66
2022/11/14 16:32:55;;;;;;;;;;;;;;;;;;6097407;23;8142;-65
2022/11/14 16:35:24;;;;;;;;;;;;;;;;;;6098971;23;7037;-65
2022/11/14 16:37:50;;;;;;;;;;;;;;;;;;6072670;23;6902;-65
2022/11/14 16:40:26;;;;;;;;;;;;;;;;;;6073910;23;8445;-65
2022/11/14 16:42:57;;;;;;;;;;;;;;;;;;6098137;23;6998;-65
2022/11/14 16:45:26;;;;;;;;;;;;;;;;;;6073252;23;8443;-65
2022/11/14 16:47:52;;;;;;;;;;;;;;;;;;6073935;23;7032;-66
2022/11/14 16:50:19;;;;;;;;;;;;;;;;;;6073529;23;8286;-66
2022/11/14 16:52:46;;;;;;;;;;;;;;;;;;6097813;23;7109;-65
2022/11/14 16:55:12;;;;;;;;;;;;;;;;;;6098848;23;7128;-67
2022/11/14 16:57:38;;;;;;;;;;;;;;;;;;6099153;23;6856;-67
2022/11/14 17:00:08;;;;;;;;;;;;;;;;;;6072479;23;6801;-67
2022/11/14 17:02:34;;;;;;;;;;;;;;;;;;6073005;23;7122;-67
2022/11/14 17:04:59;;;;;;;;;;;;;;;;;;6098318;23;7125;-66
2022/11/14 17:07:29;;;;;;;;;;;;;;;;;;6073072;23;8372;-66
2022/11/14 17:09:55;;;;;;;;;;;;;;;;;;6099256;23;7009;-67
2022/11/14 17:12:20;;;;;;;;;;;;;;;;;;6072529;23;7013;-67
2022/11/14 17:14:46;;;;;;;;;;;;;;;;;;6073284;23;8781;-67
2022/11/14 17:17:11;;;;;;;;;;;;;;;;;;6099273;23;7059;-67
2022/11/14 17:19:44;;;;;;;;;;;;;;;;;;6098623;23;7125;-65
2022/11/14 17:22:14;;;;;;;;;;;;;;;;;;6097549;23;7002;-65
2022/11/14 17:24:40;;;;;;;;;;;;;;;;;;6098761;23;7090;-65
2022/11/14 17:27:07;;;;;;;;;;;;;;;;;;6098643;23;7360;-65
2022/11/14 17:29:32;;;;;;;;;;;;;;;;;;6098099;23;7018;-65
2022/11/14 17:31:58;;;;;;;;;;;;;;;;;;6098260;23;6925;-65
2022/11/14 17:34:23;;;;;;;;;;;;;;;;;;6098409;23;6971;-65
2022/11/14 17:36:49;;;;;;;;;;;;;;;;;;6098638;23;7004;-65
2022/11/14 17:39:14;;;;;;;;;;;;;;;;;;6098205;23;7251;-65
2022/11/14 17:41:40;;;;;;;;;;;;;;;;;;6097747;23;7150;-65
2022/11/14 17:44:08;;;;;;;;;;;;;;;;;;6098285;23;7119;-67
2022/11/14 17:46:34;;;;;;;;;;;;;;;;;;6098281;23;7014;-67
2022/11/14 17:49:00;;;;;;;;;;;;;;;;;;6098865;23;6935;-67
2022/11/14 17:51:26;;;;;;;;;;;;;;;;;;6097551;23;6932;-67
2022/11/14 17:53:52;;;;;;;;;;;;;;;;;;6097952;23;6966;-67
2022/11/14 17:56:19;;;;;;;;;;;;;;;;;;6098571;23;7113;-67
2022/11/14 17:58:47;;;;;;;;;;;;;;;;;;6098067;23;7152;-66
2022/11/14 18:01:14;;;;;;;;;;;;;;;;;;6072544;23;8029;-66
2022/11/14 18:03:40;;;;;;;;;;;;;;;;;;6098289;23;8555;-66
2022/11/14 18:15:50;;;;;;;;;;;;;;;;;;6098769;23;6985;-66
2022/11/14 18:18:18;;;;;;;;;;;;;;;;;;6098259;23;7152;-66
2022/11/14 18:20:43;;;;;;;;;;;;;;;;;;6097462;23;6987;-66
2022/11/14 18:23:09;;;;;;;;;;;;;;;;;;6098081;23;7238;-66
2022/11/14 18:25:35;;;;;;;;;;;;;;;;;;6098795;23;7076;-66